sensor_id;sensor_type;location;lat;lon;timestamp;temperature;humidity
72710;SHT30;60827;48.398;-4.498;2022-08-04T00:01:26;21.49;65.01
72710;SHT30;60827;48.398;-4.498;2022-08-04T00:04:14;21.47;65.18
72710;SHT30;60827;48.398;-4.498;2022-08-04T00:09:46;21.39;65.39
72710;SHT30;60827;48.398;-4.498;2022-08-04T00:12:15;21.36;65.34
72710;SHT30;60827;48.398;-4.498;2022-08-04T00:14:46;21.33;65.48
72710;SHT30;60827;48.398;-4.498;2022-08-04T00:17:13;21.29;65.61
72710;SHT30;60827;48.398;-4.498;2022-08-04T00:19:43;21.32;65.61
72710;SHT30;60827;48.398;-4.498;2022-08-04T00:22:12;21.29;65.63
72710;SHT30;60827;48.398;-4.498;2022-08-04T00:24:38;21.26;65.60
72710;SHT30;60827;48.398;-4.498;2022-08-04T00:27:04;21.25;65.65
72710;SHT30;60827;48.398;-4.498;2022-08-04T00:29:31;21.23;65.70
72710;SHT30;60827;48.398;-4.498;2022-08-04T00:31:58;21.18;65.93
72710;SHT30;60827;48.398;-4.498;2022-08-04T00:34:29;21.16;65.91
72710;SHT30;60827;48.398;-4.498;2022-08-04T00:36:56;21.16;65.90
72710;SHT30;60827;48.398;-4.498;2022-08-04T00:39:22;21.13;66.01
72710;SHT30;60827;48.398;-4.498;2022-08-04T00:47:18;21.05;66.17
72710;SHT30;60827;48.398;-4.498;2022-08-04T00:50:04;20.98;66.53
72710;SHT30;60827;48.398;-4.498;2022-08-04T00:56:02;20.84;67.18
72710;SHT30;60827;48.398;-4.498;2022-08-04T00:58:46;20.79;67.05
72710;SHT30;60827;48.398;-4.498;2022-08-04T01:04:09;20.68;67.10
72710;SHT30;60827;48.398;-4.498;2022-08-04T01:09:25;20.59;67.32
72710;SHT30;60827;48.398;-4.498;2022-08-04T01:12:12;20.59;67.22
72710;SHT30;60827;48.398;-4.498;2022-08-04T01:17:19;20.54;67.30
72710;SHT30;60827;48.398;-4.498;2022-08-04T01:25:38;20.52;67.52
72710;SHT30;60827;48.398;-4.498;2022-08-04T01:30:54;20.49;67.43
72710;SHT30;60827;48.398;-4.498;2022-08-04T01:33:21;20.51;67.51
72710;SHT30;60827;48.398;-4.498;2022-08-04T01:35:50;20.48;67.50
72710;SHT30;60827;48.398;-4.498;2022-08-04T01:38:38;20.48;67.89
72710;SHT30;60827;48.398;-4.498;2022-08-04T01:41:22;20.44;67.51
72710;SHT30;60827;48.398;-4.498;2022-08-04T01:43:53;20.44;67.64
72710;SHT30;60827;48.398;-4.498;2022-08-04T01:46:20;20.40;67.52
72710;SHT30;60827;48.398;-4.498;2022-08-04T01:48:52;20.38;67.70
72710;SHT30;60827;48.398;-4.498;2022-08-04T01:51:20;20.35;67.87
72710;SHT30;60827;48.398;-4.498;2022-08-04T01:53:46;20.30;67.91
72710;SHT30;60827;48.398;-4.498;2022-08-04T01:56:12;20.28;68.02
72710;SHT30;60827;48.398;-4.498;2022-08-04T01:58:39;20.28;68.00
72710;SHT30;60827;48.398;-4.498;2022-08-04T02:01:07;20.28;67.93
72710;SHT30;60827;48.398;-4.498;2022-08-04T02:03:34;20.30;67.95
72710;SHT30;60827;48.398;-4.498;2022-08-04T02:11:40;20.30;67.77
72710;SHT30;60827;48.398;-4.498;2022-08-04T02:17:09;20.31;67.89
72710;SHT30;60827;48.398;-4.498;2022-08-04T02:22:15;20.31;67.95
72710;SHT30;60827;48.398;-4.498;2022-08-04T02:24:57;20.31;68.10
72710;SHT30;60827;48.398;-4.498;2022-08-04T02:27:53;20.33;68.04
72710;SHT30;60827;48.398;-4.498;2022-08-04T02:30:20;20.38;67.89
72710;SHT30;60827;48.398;-4.498;2022-08-04T02:32:48;20.40;67.91
72710;SHT30;60827;48.398;-4.498;2022-08-04T02:35:22;20.41;67.92
72710;SHT30;60827;48.398;-4.498;2022-08-04T02:38:00;20.45;67.91
72710;SHT30;60827;48.398;-4.498;2022-08-04T02:40:29;20.45;67.85
72710;SHT30;60827;48.398;-4.498;2022-08-04T02:42:56;20.48;67.88
72710;SHT30;60827;48.398;-4.498;2022-08-04T02:45:24;20.48;67.95
72710;SHT30;60827;48.398;-4.498;2022-08-04T02:47:52;20.54;67.96
72710;SHT30;60827;48.398;-4.498;2022-08-04T02:50:19;20.55;67.84
72710;SHT30;60827;48.398;-4.498;2022-08-04T02:52:46;20.58;67.95
72710;SHT30;60827;48.398;-4.498;2022-08-04T02:55:16;20.61;67.86
72710;SHT30;60827;48.398;-4.498;2022-08-04T02:57:44;20.63;67.82
72710;SHT30;60827;48.398;-4.498;2022-08-04T03:00:12;20.67;67.80
72710;SHT30;60827;48.398;-4.498;2022-08-04T03:05:14;20.68;67.85
72710;SHT30;60827;48.398;-4.498;2022-08-04T03:07:58;20.68;68.03
72710;SHT30;60827;48.398;-4.498;2022-08-04T03:16:29;20.74;67.99
72710;SHT30;60827;48.398;-4.498;2022-08-04T03:22:17;20.79;68.06
72710;SHT30;60827;48.398;-4.498;2022-08-04T03:30:19;20.81;67.81
72710;SHT30;60827;48.398;-4.498;2022-08-04T03:41:55;20.81;67.63
72710;SHT30;60827;48.398;-4.498;2022-08-04T03:44:53;20.78;67.61
72710;SHT30;60827;48.398;-4.498;2022-08-04T03:47:46;20.79;67.50
72710;SHT30;60827;48.398;-4.498;2022-08-04T03:59:22;20.72;67.30
72710;SHT30;60827;48.398;-4.498;2022-08-04T04:18:51;20.51;67.01
72710;SHT30;60827;48.398;-4.498;2022-08-04T04:40:33;20.20;66.52
72710;SHT30;60827;48.398;-4.498;2022-08-04T04:46:14;20.14;66.52
72710;SHT30;60827;48.398;-4.498;2022-08-04T04:49:04;20.09;66.54
72710;SHT30;60827;48.398;-4.498;2022-08-04T04:51:41;20.06;66.54
72710;SHT30;60827;48.398;-4.498;2022-08-04T04:54:32;20.06;66.45
72710;SHT30;60827;48.398;-4.498;2022-08-04T04:59:32;20.04;66.39
72710;SHT30;60827;48.398;-4.498;2022-08-04T05:14:08;20.01;66.24
72710;SHT30;60827;48.398;-4.498;2022-08-04T05:16:40;20.00;66.14
72710;SHT30;60827;48.398;-4.498;2022-08-04T05:19:22;20.00;66.14
72710;SHT30;60827;48.398;-4.498;2022-08-04T05:22:03;20.00;66.05
72710;SHT30;60827;48.398;-4.498;2022-08-04T05:24:35;20.01;66.04
72710;SHT30;60827;48.398;-4.498;2022-08-04T05:27:05;20.00;66.01
72710;SHT30;60827;48.398;-4.498;2022-08-04T05:29:37;19.98;66.04
72710;SHT30;60827;48.398;-4.498;2022-08-04T05:32:10;20.00;66.02
72710;SHT30;60827;48.398;-4.498;2022-08-04T05:34:48;20.04;65.91
72710;SHT30;60827;48.398;-4.498;2022-08-04T05:37:18;20.04;65.89
72710;SHT30;60827;48.398;-4.498;2022-08-04T05:39:48;20.06;65.83
72710;SHT30;60827;48.398;-4.498;2022-08-04T05:42:14;20.06;65.82
72710;SHT30;60827;48.398;-4.498;2022-08-04T05:44:41;20.10;65.71
72710;SHT30;60827;48.398;-4.498;2022-08-04T05:47:10;20.12;65.72
72710;SHT30;60827;48.398;-4.498;2022-08-04T05:49:38;20.12;65.75
72710;SHT30;60827;48.398;-4.498;2022-08-04T05:52:05;20.13;65.70
72710;SHT30;60827;48.398;-4.498;2022-08-04T05:54:32;20.13;65.66
72710;SHT30;60827;48.398;-4.498;2022-08-04T05:56:59;20.14;65.68
72710;SHT30;60827;48.398;-4.498;2022-08-04T05:59:28;20.14;65.71
72710;SHT30;60827;48.398;-4.498;2022-08-04T06:01:56;20.14;65.65
72710;SHT30;60827;48.398;-4.498;2022-08-04T06:04:39;20.17;65.58
72710;SHT30;60827;48.398;-4.498;2022-08-04T06:07:05;20.18;65.51
72710;SHT30;60827;48.398;-4.498;2022-08-04T06:09:32;20.20;65.53
72710;SHT30;60827;48.398;-4.498;2022-08-04T06:12:06;20.23;65.48
72710;SHT30;60827;48.398;-4.498;2022-08-04T06:14:43;20.25;65.44
72710;SHT30;60827;48.398;-4.498;2022-08-04T06:17:14;20.24;65.48
72710;SHT30;60827;48.398;-4.498;2022-08-04T06:19:40;20.28;65.41
72710;SHT30;60827;48.398;-4.498;2022-08-04T06:22:10;20.33;65.40
72710;SHT30;60827;48.398;-4.498;2022-08-04T06:24:38;20.33;65.37
72710;SHT30;60827;48.398;-4.498;2022-08-04T06:27:04;20.37;65.37
72710;SHT30;60827;48.398;-4.498;2022-08-04T06:29:31;20.43;65.39
72710;SHT30;60827;48.398;-4.498;2022-08-04T06:32:06;20.44;65.30
72710;SHT30;60827;48.398;-4.498;2022-08-04T06:34:51;20.51;65.17
72710;SHT30;60827;48.398;-4.498;2022-08-04T06:37:17;20.52;65.13
72710;SHT30;60827;48.398;-4.498;2022-08-04T06:39:43;20.58;65.06
72710;SHT30;60827;48.398;-4.498;2022-08-04T06:42:09;20.63;64.93
72710;SHT30;60827;48.398;-4.498;2022-08-04T06:44:35;20.67;64.83
72710;SHT30;60827;48.398;-4.498;2022-08-04T06:47:01;20.71;64.72
72710;SHT30;60827;48.398;-4.498;2022-08-04T06:49:28;20.75;64.65
72710;SHT30;60827;48.398;-4.498;2022-08-04T06:51:55;20.79;64.50
72710;SHT30;60827;48.398;-4.498;2022-08-04T06:54:22;20.84;64.36
72710;SHT30;60827;48.398;-4.498;2022-08-04T06:56:48;20.85;64.23
72710;SHT30;60827;48.398;-4.498;2022-08-04T06:59:16;20.89;64.11
72710;SHT30;60827;48.398;-4.498;2022-08-04T07:01:43;20.94;63.93
72710;SHT30;60827;48.398;-4.498;2022-08-04T07:04:10;21.00;63.63
72710;SHT30;60827;48.398;-4.498;2022-08-04T07:06:36;21.02;63.45
72710;SHT30;60827;48.398;-4.498;2022-08-04T07:09:02;21.05;63.40
72710;SHT30;60827;48.398;-4.498;2022-08-04T07:11:28;21.09;63.45
72710;SHT30;60827;48.398;-4.498;2022-08-04T07:13:54;21.15;62.98
72710;SHT30;60827;48.398;-4.498;2022-08-04T07:16:21;21.18;62.72
72710;SHT30;60827;48.398;-4.498;2022-08-04T07:18:47;21.19;62.60
72710;SHT30;60827;48.398;-4.498;2022-08-04T07:21:22;21.23;62.30
72710;SHT30;60827;48.398;-4.498;2022-08-04T07:23:49;21.27;62.28
72710;SHT30;60827;48.398;-4.498;2022-08-04T07:26:15;21.32;62.12
72710;SHT30;60827;48.398;-4.498;2022-08-04T07:28:43;21.36;62.03
72710;SHT30;60827;48.398;-4.498;2022-08-04T07:31:13;21.40;61.85
72710;SHT30;60827;48.398;-4.498;2022-08-04T07:33:40;21.47;61.64
72710;SHT30;60827;48.398;-4.498;2022-08-04T07:36:06;21.54;61.58
72710;SHT30;60827;48.398;-4.498;2022-08-04T07:38:32;21.60;61.50
72710;SHT30;60827;48.398;-4.498;2022-08-04T07:40:58;21.68;61.22
72710;SHT30;60827;48.398;-4.498;2022-08-04T07:43:24;21.76;60.83
72710;SHT30;60827;48.398;-4.498;2022-08-04T07:45:51;21.88;60.64
72710;SHT30;60827;48.398;-4.498;2022-08-04T07:48:17;21.93;60.47
72710;SHT30;60827;48.398;-4.498;2022-08-04T07:50:43;22.00;60.05
72710;SHT30;60827;48.398;-4.498;2022-08-04T07:53:11;22.08;59.84
72710;SHT30;60827;48.398;-4.498;2022-08-04T07:55:36;22.09;59.54
72710;SHT30;60827;48.398;-4.498;2022-08-04T07:58:02;22.14;59.32
72710;SHT30;60827;48.398;-4.498;2022-08-04T08:00:31;22.21;59.34
72710;SHT30;60827;48.398;-4.498;2022-08-04T08:02:57;22.26;59.30
72710;SHT30;60827;48.398;-4.498;2022-08-04T08:05:23;22.28;59.22
72710;SHT30;60827;48.398;-4.498;2022-08-04T08:07:50;22.36;59.24
72710;SHT30;60827;48.398;-4.498;2022-08-04T08:10:16;22.44;59.19
72710;SHT30;60827;48.398;-4.498;2022-08-04T08:12:42;22.48;59.11
72710;SHT30;60827;48.398;-4.498;2022-08-04T08:15:11;22.51;58.57
72710;SHT30;60827;48.398;-4.498;2022-08-04T08:17:37;22.60;58.62
72710;SHT30;60827;48.398;-4.498;2022-08-04T08:20:03;22.69;58.29
72710;SHT30;60827;48.398;-4.498;2022-08-04T08:22:30;22.76;58.22
72710;SHT30;60827;48.398;-4.498;2022-08-04T08:24:56;22.82;58.18
72710;SHT30;60827;48.398;-4.498;2022-08-04T08:27:22;22.95;58.00
72710;SHT30;60827;48.398;-4.498;2022-08-04T08:29:48;23.04;57.21
72710;SHT30;60827;48.398;-4.498;2022-08-04T08:32:13;23.20;56.96
72710;SHT30;60827;48.398;-4.498;2022-08-04T08:34:41;23.31;56.89
72710;SHT30;60827;48.398;-4.498;2022-08-04T08:39:54;23.30;56.40
72710;SHT30;60827;48.398;-4.498;2022-08-04T08:42:59;23.26;56.19
72710;SHT30;60827;48.398;-4.498;2022-08-04T08:59:38;23.17;56.81
72710;SHT30;60827;48.398;-4.498;2022-08-04T09:10:35;23.10;56.54
72710;SHT30;60827;48.398;-4.498;2022-08-04T09:13:09;23.07;56.21
72710;SHT30;60827;48.398;-4.498;2022-08-04T09:16:01;23.13;56.11
72710;SHT30;60827;48.398;-4.498;2022-08-04T09:18:36;23.33;55.85
72710;SHT30;60827;48.398;-4.498;2022-08-04T09:26:47;23.44;54.94
72710;SHT30;60827;48.398;-4.498;2022-08-04T09:29:19;23.50;53.90
72710;SHT30;60827;48.398;-4.498;2022-08-04T09:32:13;23.50;51.77
72710;SHT30;60827;48.398;-4.498;2022-08-04T09:37:37;23.69;52.37
72710;SHT30;60827;48.398;-4.498;2022-08-04T09:42:56;23.95;52.73
72710;SHT30;60827;48.398;-4.498;2022-08-04T09:45:34;24.02;52.04
72710;SHT30;60827;48.398;-4.498;2022-08-04T09:48:14;24.10;50.90
72710;SHT30;60827;48.398;-4.498;2022-08-04T09:50:42;24.20;51.94
72710;SHT30;60827;48.398;-4.498;2022-08-04T09:53:25;24.32;50.37
72710;SHT30;60827;48.398;-4.498;2022-08-04T09:58:51;24.55;48.59
72710;SHT30;60827;48.398;-4.498;2022-08-04T10:01:20;24.63;49.00
72710;SHT30;60827;48.398;-4.498;2022-08-04T10:04:08;24.71;47.86
72710;SHT30;60827;48.398;-4.498;2022-08-04T10:26:49;25.38;43.57
72710;SHT30;60827;48.398;-4.498;2022-08-04T10:29:51;25.48;44.90
72710;SHT30;60827;48.398;-4.498;2022-08-04T10:35:09;25.73;45.50
72710;SHT30;60827;48.398;-4.498;2022-08-04T10:37:42;25.82;45.15
72710;SHT30;60827;48.398;-4.498;2022-08-04T10:40:16;25.85;44.85
72710;SHT30;60827;48.398;-4.498;2022-08-04T10:43:11;25.77;44.96
72710;SHT30;60827;48.398;-4.498;2022-08-04T10:45:43;25.77;45.41
72710;SHT30;60827;48.398;-4.498;2022-08-04T10:51:11;25.82;44.23
72710;SHT30;60827;48.398;-4.498;2022-08-04T10:53:41;25.85;44.65
72710;SHT30;60827;48.398;-4.498;2022-08-04T10:56:17;25.93;44.44
72710;SHT30;60827;48.398;-4.498;2022-08-04T10:58:51;26.01;44.72
72710;SHT30;60827;48.398;-4.498;2022-08-04T11:01:24;26.09;44.30
72710;SHT30;60827;48.398;-4.498;2022-08-04T11:04:03;26.13;43.87
72710;SHT30;60827;48.398;-4.498;2022-08-04T11:06:31;26.16;44.55
72710;SHT30;60827;48.398;-4.498;2022-08-04T11:08:59;26.21;44.35
72710;SHT30;60827;48.398;-4.498;2022-08-04T11:14:12;26.36;44.20
72710;SHT30;60827;48.398;-4.498;2022-08-04T11:19:16;26.45;44.05
72710;SHT30;60827;48.398;-4.498;2022-08-04T11:21:54;26.52;43.54
72710;SHT30;60827;48.398;-4.498;2022-08-04T11:27:01;26.65;43.56
72710;SHT30;60827;48.398;-4.498;2022-08-04T11:29:55;26.78;43.45
72710;SHT30;60827;48.398;-4.498;2022-08-04T11:32:50;26.88;43.22
72710;SHT30;60827;48.398;-4.498;2022-08-04T11:35:31;26.91;42.78
72710;SHT30;60827;48.398;-4.498;2022-08-04T11:41:13;26.89;43.75
72710;SHT30;60827;48.398;-4.498;2022-08-04T11:43:52;26.89;42.80
72710;SHT30;60827;48.398;-4.498;2022-08-04T11:46:31;26.84;43.16
72710;SHT30;60827;48.398;-4.498;2022-08-04T11:49:24;26.67;43.01
72710;SHT30;60827;48.398;-4.498;2022-08-04T11:51:55;26.68;43.45
72710;SHT30;60827;48.398;-4.498;2022-08-04T11:54:22;26.77;43.72
72710;SHT30;60827;48.398;-4.498;2022-08-04T11:56:48;26.71;43.62
72710;SHT30;60827;48.398;-4.498;2022-08-04T11:59:14;26.68;43.18
72710;SHT30;60827;48.398;-4.498;2022-08-04T12:07:19;26.98;43.09
72710;SHT30;60827;48.398;-4.498;2022-08-04T12:12:42;27.19;41.56
72710;SHT30;60827;48.398;-4.498;2022-08-04T12:15:31;27.29;40.18
72710;SHT30;60827;48.398;-4.498;2022-08-04T12:20:41;27.46;40.43
72710;SHT30;60827;48.398;-4.498;2022-08-04T12:23:16;27.61;38.98
72710;SHT30;60827;48.398;-4.498;2022-08-04T12:25:47;27.63;39.65
72710;SHT30;60827;48.398;-4.498;2022-08-04T12:28:33;27.64;39.49
72710;SHT30;60827;48.398;-4.498;2022-08-04T12:31:05;27.74;39.32
72710;SHT30;60827;48.398;-4.498;2022-08-04T12:33:48;27.87;38.71
72710;SHT30;60827;48.398;-4.498;2022-08-04T12:39:10;28.01;38.90
72710;SHT30;60827;48.398;-4.498;2022-08-04T12:41:47;28.15;38.66
72710;SHT30;60827;48.398;-4.498;2022-08-04T12:44:18;28.17;37.17
72710;SHT30;60827;48.398;-4.498;2022-08-04T12:46:45;28.15;37.66
72710;SHT30;60827;48.398;-4.498;2022-08-04T12:49:11;28.28;38.38
72710;SHT30;60827;48.398;-4.498;2022-08-04T12:51:41;28.45;38.67
72710;SHT30;60827;48.398;-4.498;2022-08-04T12:54:08;28.44;38.59
72710;SHT30;60827;48.398;-4.498;2022-08-04T12:56:35;28.45;38.59
72710;SHT30;60827;48.398;-4.498;2022-08-04T12:59:06;28.41;37.70
72710;SHT30;60827;48.398;-4.498;2022-08-04T13:01:33;28.34;36.81
72710;SHT30;60827;48.398;-4.498;2022-08-04T13:04:15;28.19;35.86
72710;SHT30;60827;48.398;-4.498;2022-08-04T13:06:43;28.18;36.87
72710;SHT30;60827;48.398;-4.498;2022-08-04T13:09:17;28.22;37.67
72710;SHT30;60827;48.398;-4.498;2022-08-04T13:11:50;28.32;38.20
72710;SHT30;60827;48.398;-4.498;2022-08-04T13:14:17;28.38;38.62
72710;SHT30;60827;48.398;-4.498;2022-08-04T13:16:44;28.34;38.30
72710;SHT30;60827;48.398;-4.498;2022-08-04T13:19:10;28.34;38.80
72710;SHT30;60827;48.398;-4.498;2022-08-04T13:21:43;28.29;38.89
72710;SHT30;60827;48.398;-4.498;2022-08-04T13:24:14;28.39;39.24
72710;SHT30;60827;48.398;-4.498;2022-08-04T13:26:58;28.35;37.48
72710;SHT30;60827;48.398;-4.498;2022-08-04T13:29:33;28.37;37.07
72710;SHT30;60827;48.398;-4.498;2022-08-04T13:32:01;28.47;37.73
72710;SHT30;60827;48.398;-4.498;2022-08-04T13:34:28;28.45;37.49
72710;SHT30;60827;48.398;-4.498;2022-08-04T13:36:54;28.59;37.39
72710;SHT30;60827;48.398;-4.498;2022-08-04T13:39:21;28.66;37.10
72710;SHT30;60827;48.398;-4.498;2022-08-04T13:41:52;28.72;36.54
72710;SHT30;60827;48.398;-4.498;2022-08-04T13:44:30;28.89;36.26
72710;SHT30;60827;48.398;-4.498;2022-08-04T13:47:03;28.97;36.37
72710;SHT30;60827;48.398;-4.498;2022-08-04T13:49:30;28.97;36.32
72710;SHT30;60827;48.398;-4.498;2022-08-04T13:52:02;28.97;36.82
72710;SHT30;60827;48.398;-4.498;2022-08-04T13:54:42;29.03;36.11
72710;SHT30;60827;48.398;-4.498;2022-08-04T13:57:17;28.88;36.26
72710;SHT30;60827;48.398;-4.498;2022-08-04T13:59:47;28.83;36.74
72710;SHT30;60827;48.398;-4.498;2022-08-04T14:02:40;28.97;37.00
72710;SHT30;60827;48.398;-4.498;2022-08-04T14:05:16;29.16;37.02
72710;SHT30;60827;48.398;-4.498;2022-08-04T14:07:50;29.35;37.03
72710;SHT30;60827;48.398;-4.498;2022-08-04T14:10:18;29.43;36.67
72710;SHT30;60827;48.398;-4.498;2022-08-04T14:12:48;29.48;36.32
72710;SHT30;60827;48.398;-4.498;2022-08-04T14:15:34;29.40;35.49
72710;SHT30;60827;48.398;-4.498;2022-08-04T14:18:18;29.43;36.31
72710;SHT30;60827;48.398;-4.498;2022-08-04T14:23:28;29.61;36.33
72710;SHT30;60827;48.398;-4.498;2022-08-04T14:25:54;29.74;36.16
72710;SHT30;60827;48.398;-4.498;2022-08-04T14:28:30;29.77;35.82
72710;SHT30;60827;48.398;-4.498;2022-08-04T14:31:25;29.93;35.68
72710;SHT30;60827;48.398;-4.498;2022-08-04T14:33:52;30.01;36.45
72710;SHT30;60827;48.398;-4.498;2022-08-04T14:36:20;30.13;36.50
72710;SHT30;60827;48.398;-4.498;2022-08-04T14:38:55;30.23;36.60
72710;SHT30;60827;48.398;-4.498;2022-08-04T14:41:26;30.37;36.20
72710;SHT30;60827;48.398;-4.498;2022-08-04T14:43:54;30.53;36.64
72710;SHT30;60827;48.398;-4.498;2022-08-04T14:46:21;30.60;36.45
72710;SHT30;60827;48.398;-4.498;2022-08-04T14:49:10;30.50;35.18
72710;SHT30;60827;48.398;-4.498;2022-08-04T14:51:40;30.44;35.52
72710;SHT30;60827;48.398;-4.498;2022-08-04T14:54:24;30.35;36.07
72710;SHT30;60827;48.398;-4.498;2022-08-04T14:56:52;30.36;36.25
72710;SHT30;60827;48.398;-4.498;2022-08-04T14:59:18;30.32;36.20
72710;SHT30;60827;48.398;-4.498;2022-08-04T15:01:45;30.22;36.34
72710;SHT30;60827;48.398;-4.498;2022-08-04T15:04:10;30.10;36.58
72710;SHT30;60827;48.398;-4.498;2022-08-04T15:06:36;30.08;36.94
72710;SHT30;60827;48.398;-4.498;2022-08-04T15:09:07;29.99;37.31
72710;SHT30;60827;48.398;-4.498;2022-08-04T15:11:35;29.98;37.77
72710;SHT30;60827;48.398;-4.498;2022-08-04T15:14:01;29.95;38.14
72710;SHT30;60827;48.398;-4.498;2022-08-04T15:16:29;29.93;38.47
72710;SHT30;60827;48.398;-4.498;2022-08-04T15:18:55;29.86;38.62
72710;SHT30;60827;48.398;-4.498;2022-08-04T15:21:23;29.71;38.98
72710;SHT30;60827;48.398;-4.498;2022-08-04T15:23:50;29.71;39.11
72710;SHT30;60827;48.398;-4.498;2022-08-04T15:28:52;30.04;39.21
72710;SHT30;60827;48.398;-4.498;2022-08-04T15:31:20;30.22;39.22
72710;SHT30;60827;48.398;-4.498;2022-08-04T15:33:47;30.18;39.24
72710;SHT30;60827;48.398;-4.498;2022-08-04T15:47:13;28.97;40.36
72710;SHT30;60827;48.398;-4.498;2022-08-04T15:49:39;28.86;40.50
72710;SHT30;60827;48.398;-4.498;2022-08-04T15:52:08;28.70;40.45
72710;SHT30;60827;48.398;-4.498;2022-08-04T15:54:34;28.68;40.47
72710;SHT30;60827;48.398;-4.498;2022-08-04T15:57:04;28.66;40.32
72710;SHT30;60827;48.398;-4.498;2022-08-04T15:59:59;28.69;40.14
72710;SHT30;60827;48.398;-4.498;2022-08-04T16:07:57;29.16;39.50
72710;SHT30;60827;48.398;-4.498;2022-08-04T16:13:02;29.51;39.34
72710;SHT30;60827;48.398;-4.498;2022-08-04T16:15:56;30.10;38.45
72710;SHT30;60827;48.398;-4.498;2022-08-04T16:20:53;31.01;37.22
72710;SHT30;60827;48.398;-4.498;2022-08-04T16:26:07;33.56;34.15
72710;SHT30;60827;48.398;-4.498;2022-08-04T16:28:37;34.89;32.96
72710;SHT30;60827;48.398;-4.498;2022-08-04T16:31:05;35.16;32.56
72710;SHT30;60827;48.398;-4.498;2022-08-04T16:33:32;35.19;32.09
72710;SHT30;60827;48.398;-4.498;2022-08-04T16:35:58;34.98;32.11
72710;SHT30;60827;48.398;-4.498;2022-08-04T16:38:24;35.15;31.57
72710;SHT30;60827;48.398;-4.498;2022-08-04T16:40:54;35.84;30.59
72710;SHT30;60827;48.398;-4.498;2022-08-04T16:43:21;36.69;29.76
72710;SHT30;60827;48.398;-4.498;2022-08-04T16:48:21;37.19;28.90
72710;SHT30;60827;48.398;-4.498;2022-08-04T16:53:13;37.80;28.18
72710;SHT30;60827;48.398;-4.498;2022-08-04T16:55:51;36.85;28.26
72710;SHT30;60827;48.398;-4.498;2022-08-04T16:58:24;37.31;28.19
72710;SHT30;60827;48.398;-4.498;2022-08-04T17:00:49;36.69;28.67
72710;SHT30;60827;48.398;-4.498;2022-08-04T17:03:16;35.88;29.33
72710;SHT30;60827;48.398;-4.498;2022-08-04T17:05:42;35.10;30.05
72710;SHT30;60827;48.398;-4.498;2022-08-04T17:08:08;34.33;30.79
72710;SHT30;60827;48.398;-4.498;2022-08-04T17:13:24;32.92;31.59
72710;SHT30;60827;48.398;-4.498;2022-08-04T17:15:52;32.47;32.37
72710;SHT30;60827;48.398;-4.498;2022-08-04T17:18:29;31.89;32.64
72710;SHT30;60827;48.398;-4.498;2022-08-04T17:20:57;32.47;32.23
72710;SHT30;60827;48.398;-4.498;2022-08-04T17:23:33;33.21;31.39
72710;SHT30;60827;48.398;-4.498;2022-08-04T17:26:06;34.18;30.76
72710;SHT30;60827;48.398;-4.498;2022-08-04T17:28:33;34.88;29.96
72710;SHT30;60827;48.398;-4.498;2022-08-04T17:31:00;35.56;29.04
72710;SHT30;60827;48.398;-4.498;2022-08-04T17:33:25;36.25;28.23
72710;SHT30;60827;48.398;-4.498;2022-08-04T17:35:54;36.76;27.66
72710;SHT30;60827;48.398;-4.498;2022-08-04T17:38:21;37.29;26.78
72710;SHT30;60827;48.398;-4.498;2022-08-04T17:40:59;37.57;25.09
72710;SHT30;60827;48.398;-4.498;2022-08-04T17:46:17;38.48;23.37
72710;SHT30;60827;48.398;-4.498;2022-08-04T17:48:44;38.79;24.36
72710;SHT30;60827;48.398;-4.498;2022-08-04T17:51:16;39.07;23.36
72710;SHT30;60827;48.398;-4.498;2022-08-04T17:53:43;39.17;24.10
72710;SHT30;60827;48.398;-4.498;2022-08-04T17:56:31;39.37;23.08
72710;SHT30;60827;48.398;-4.498;2022-08-04T17:59:16;39.44;22.15
72710;SHT30;60827;48.398;-4.498;2022-08-04T18:04:48;39.50;23.52
72710;SHT30;60827;48.398;-4.498;2022-08-04T18:07:19;39.41;22.82
72710;SHT30;60827;48.398;-4.498;2022-08-04T18:09:56;39.44;23.34
72710;SHT30;60827;48.398;-4.498;2022-08-04T18:12:28;39.34;23.01
72710;SHT30;60827;48.398;-4.498;2022-08-04T18:14:59;39.30;23.64
72710;SHT30;60827;48.398;-4.498;2022-08-04T18:17:39;39.30;23.02
72710;SHT30;60827;48.398;-4.498;2022-08-04T18:20:14;39.16;23.63
72710;SHT30;60827;48.398;-4.498;2022-08-04T18:22:41;39.07;23.62
72710;SHT30;60827;48.398;-4.498;2022-08-04T18:25:08;38.97;23.46
72710;SHT30;60827;48.398;-4.498;2022-08-04T18:27:34;38.77;23.42
72710;SHT30;60827;48.398;-4.498;2022-08-04T18:30:10;38.52;23.53
72710;SHT30;60827;48.398;-4.498;2022-08-04T18:32:35;38.39;23.73
72710;SHT30;60827;48.398;-4.498;2022-08-04T18:35:01;38.28;23.80
72710;SHT30;60827;48.398;-4.498;2022-08-04T18:37:26;38.08;23.88
72710;SHT30;60827;48.398;-4.498;2022-08-04T18:39:51;37.89;24.12
72710;SHT30;60827;48.398;-4.498;2022-08-04T18:42:17;37.53;24.53
72710;SHT30;60827;48.398;-4.498;2022-08-04T18:44:42;37.38;24.84
72710;SHT30;60827;48.398;-4.498;2022-08-04T18:47:07;37.19;25.01
72710;SHT30;60827;48.398;-4.498;2022-08-04T18:49:33;36.90;25.15
72710;SHT30;60827;48.398;-4.498;2022-08-04T18:51:58;36.65;25.39
72710;SHT30;60827;48.398;-4.498;2022-08-04T18:54:24;36.24;25.80
72710;SHT30;60827;48.398;-4.498;2022-08-04T18:56:51;35.80;26.30
72710;SHT30;60827;48.398;-4.498;2022-08-04T18:59:18;35.40;26.76
72710;SHT30;60827;48.398;-4.498;2022-08-04T19:01:44;35.08;27.19
72710;SHT30;60827;48.398;-4.498;2022-08-04T19:04:10;34.81;27.59
72710;SHT30;60827;48.398;-4.498;2022-08-04T19:06:36;34.45;27.95
72710;SHT30;60827;48.398;-4.498;2022-08-04T19:09:03;34.04;28.33
72710;SHT30;60827;48.398;-4.498;2022-08-04T19:11:28;33.62;28.80
72710;SHT30;60827;48.398;-4.498;2022-08-04T19:13:54;33.30;29.17
72710;SHT30;60827;48.398;-4.498;2022-08-04T19:16:20;32.94;29.55
72710;SHT30;60827;48.398;-4.498;2022-08-04T19:18:45;32.51;29.99
72710;SHT30;60827;48.398;-4.498;2022-08-04T19:21:11;32.10;30.44
72710;SHT30;60827;48.398;-4.498;2022-08-04T19:23:36;31.82;30.76
72710;SHT30;60827;48.398;-4.498;2022-08-04T19:26:01;31.43;31.04
72710;SHT30;60827;48.398;-4.498;2022-08-04T19:28:28;30.97;31.49
72710;SHT30;60827;48.398;-4.498;2022-08-04T19:30:54;30.47;31.99
72710;SHT30;60827;48.398;-4.498;2022-08-04T19:33:20;29.98;32.59
72710;SHT30;60827;48.398;-4.498;2022-08-04T19:35:46;29.47;33.06
72710;SHT30;60827;48.398;-4.498;2022-08-04T19:38:11;29.00;33.74
72710;SHT30;60827;48.398;-4.498;2022-08-04T19:40:37;28.52;34.21
72710;SHT30;60827;48.398;-4.498;2022-08-04T19:43:03;28.12;34.78
72710;SHT30;60827;48.398;-4.498;2022-08-04T19:45:30;27.74;35.34
72710;SHT30;60827;48.398;-4.498;2022-08-04T19:47:55;27.37;35.81
72710;SHT30;60827;48.398;-4.498;2022-08-04T19:50:21;27.02;36.20
72710;SHT30;60827;48.398;-4.498;2022-08-04T19:52:46;26.69;36.64
72710;SHT30;60827;48.398;-4.498;2022-08-04T19:55:12;26.41;36.94
72710;SHT30;60827;48.398;-4.498;2022-08-04T19:57:38;26.16;37.45
72710;SHT30;60827;48.398;-4.498;2022-08-04T20:00:11;25.82;37.88
72710;SHT30;60827;48.398;-4.498;2022-08-04T20:02:44;25.49;38.55